Time;durP1;ratioP1;P1;durP2;ratioP2;P2;SDS_P1;SDS_P2;PMS_P1;PMS_P2;Temp;Humidity;BMP_temperature;BMP_pressure;BME280_temperature;BME280_humidity;BME280_pressure;Samples;Min_cycle;Max_cycle;Signal;HPM_P1;HPM_P2
2022/07/18 00:00:13;;;;;;;6.15;4.15;;;;;;;14.57;78.39;96296.56;5025349;28;20440;-76
2022/07/18 00:02:59;;;;;;;6.47;4.25;;;;;;;14.58;79.24;96292.84;5022235;28;20108;-76
2022/07/18 00:05:24;;;;;;;8.02;4.25;;;;;;;14.56;78.97;96297.63;5006987;28;20046;-76
2022/07/18 00:07:50;;;;;;;5.65;4.20;;;;;;;14.52;79.05;96293.94;5008567;28;20072;-76
2022/07/18 00:10:15;;;;;;;5.28;4.00;;;;;;;14.44;78.99;96297.16;5024714;28;20046;-76
2022/07/18 00:12:41;;;;;;;6.18;4.22;;;;;;;14.38;79.63;96305.16;5009625;28;20049;-76
2022/07/18 00:15:09;;;;;;;6.82;4.60;;;;;;;14.24;80.10;96298.88;5009743;28;20411;-77
2022/07/18 00:17:35;;;;;;;7.28;4.20;;;;;;;14.16;80.29;96294.16;5024566;28;20046;-76
2022/07/18 00:20:01;;;;;;;6.32;4.25;;;;;;;14.17;80.57;96301.03;5009132;28;20045;-77
2022/07/18 00:22:27;;;;;;;7.68;4.38;;;;;;;14.08;81.30;96295.53;5010001;28;20034;-76
2022/07/18 00:24:52;;;;;;;8.02;4.38;;;;;;;14.04;81.35;96303.19;5008950;28;20161;-77
2022/07/18 00:27:18;;;;;;;5.63;4.38;;;;;;;14.10;81.09;96297.91;5023711;28;20053;-77
2022/07/18 00:29:43;;;;;;;6.32;4.45;;;;;;;13.92;81.87;96297.47;5009435;28;20046;-77
2022/07/18 00:32:09;;;;;;;6.25;3.90;;;;;;;13.85;82.50;96296.97;5009963;28;20045;-76
2022/07/18 00:34:35;;;;;;;6.53;4.50;;;;;;;13.84;82.93;96301.44;5007799;28;20053;-77
2022/07/18 00:37:00;;;;;;;6.75;4.53;;;;;;;13.86;82.68;96306.44;5008578;28;20042;-76
2022/07/18 00:39:26;;;;;;;7.15;4.43;;;;;;;13.94;82.24;96300.59;5009494;28;20054;-76
2022/07/18 00:41:51;;;;;;;6.03;4.28;;;;;;;13.95;82.64;96302.19;5009726;28;20519;-76
2022/07/18 00:44:19;;;;;;;7.65;4.40;;;;;;;13.88;82.01;96296.41;5008195;28;20423;-76
2022/07/18 00:46:45;;;;;;;6.45;4.25;;;;;;;13.82;82.71;96297.47;5002913;28;20038;-76
2022/07/18 00:49:11;;;;;;;6.63;4.30;;;;;;;13.78;83.07;96291.16;5024074;28;20091;-76
2022/07/18 00:51:38;;;;;;;8.32;3.95;;;;;;;13.83;82.81;96299.06;5009736;28;20052;-76
2022/07/18 00:54:04;;;;;;;7.72;4.68;;;;;;;13.69;83.51;96296.19;5009648;28;20029;-76
2022/07/18 00:56:29;;;;;;;9.13;4.50;;;;;;;13.73;83.64;96291.16;5008263;28;20111;-76
2022/07/18 00:58:55;;;;;;;6.50;4.40;;;;;;;13.73;82.97;96289.31;5008796;28;20499;-76
2022/07/18 01:04:05;;;;;;;7.17;4.00;;;;;;;13.46;84.73;96285.16;5009820;28;20045;-76
2022/07/18 01:06:30;;;;;;;6.65;4.15;;;;;;;13.46;85.10;96289.66;5008489;28;20046;-76
2022/07/18 01:08:57;;;;;;;6.00;4.00;;;;;;;13.38;85.10;96292.84;5008964;28;20038;-75
2022/07/18 01:11:23;;;;;;;6.47;4.32;;;;;;;13.41;85.06;96292.31;5009051;28;20042;-76
2022/07/18 01:13:49;;;;;;;6.75;4.10;;;;;;;13.33;85.50;96297.06;5007839;28;20100;-76
2022/07/18 01:16:16;;;;;;;8.82;4.32;;;;;;;13.23;85.94;96296.28;5017176;28;20045;-77
2022/07/18 01:18:47;;;;;;;6.55;4.28;;;;;;;13.11;86.86;96288.63;4994845;28;20500;-77
2022/07/18 01:21:13;;;;;;;9.25;4.30;;;;;;;13.02;87.29;96287.59;5008113;28;20455;-76
2022/07/18 01:23:39;;;;;;;5.47;4.07;;;;;;;13.05;86.96;96281.78;5008784;28;20041;-76
2022/07/18 01:26:05;;;;;;;7.85;4.40;;;;;;;13.08;87.03;96289.16;5006612;28;20038;-76
2022/07/18 01:28:31;;;;;;;5.53;4.03;;;;;;;13.04;87.62;96282.81;5004272;28;20038;-76
2022/07/18 01:30:56;;;;;;;11.38;4.28;;;;;;;13.07;87.30;96287.56;5008789;28;20158;-76
2022/07/18 01:33:21;;;;;;;5.88;4.38;;;;;;;13.13;86.46;96286.50;5009312;28;20045;-76
2022/07/18 01:35:47;;;;;;;5.20;3.90;;;;;;;13.10;86.83;96292.31;5007626;28;20488;-76
2022/07/18 01:38:13;;;;;;;7.35;3.90;;;;;;;12.98;88.19;96296.03;5006459;28;20042;-76
2022/07/18 01:40:38;;;;;;;6.78;4.15;;;;;;;13.03;87.67;96294.44;5006170;28;20049;-75
2022/07/18 01:43:04;;;;;;;7.30;4.18;;;;;;;13.05;86.18;96289.69;5008486;28;20050;-76
2022/07/18 01:45:29;;;;;;;6.90;4.13;;;;;;;13.04;86.52;96288.09;5011602;28;20068;-76
2022/07/18 01:47:55;;;;;;;8.32;3.85;;;;;;;12.97;86.21;96293.66;5010824;28;20401;-76
2022/07/18 01:50:20;;;;;;;5.03;3.65;;;;;;;12.95;85.63;96291.28;5012693;28;20042;-75
2022/07/18 01:52:46;;;;;;;5.43;3.83;;;;;;;12.87;86.45;96293.66;5012366;28;20046;-75
2022/07/18 01:55:12;;;;;;;7.82;3.95;;;;;;;12.79;86.70;96292.34;5012145;28;20046;-75
2022/07/18 01:57:38;;;;;;;5.63;3.70;;;;;;;12.81;87.01;96295.50;5002944;28;20081;-75
2022/07/18 02:00:06;;;;;;;5.00;3.80;;;;;;;12.74;87.17;96297.63;5012221;28;20766;-76
2022/07/18 02:02:31;;;;;;;6.05;3.83;;;;;;;12.61;87.42;96291.81;5012668;28;20049;-76
2022/07/18 02:05:00;;;;;;;5.93;3.83;;;;;;;12.64;87.12;96291.28;5012333;28;20030;-77
2022/07/18 02:07:37;;;;;;;5.60;3.63;;;;;;;12.68;87.44;96293.38;5010391;28;20065;-77
2022/07/18 02:10:14;;;;;;;5.28;3.90;;;;;;;12.45;88.29;96293.59;5026799;28;20053;-77
2022/07/18 02:12:40;;;;;;;7.60;3.65;;;;;;;12.41;89.22;96297.03;5012637;28;20084;-76
2022/07/18 02:15:08;;;;;;;5.72;3.92;;;;;;;12.43;88.98;96294.94;5012540;28;20523;-76
2022/07/18 02:17:34;;;;;;;7.13;3.83;;;;;;;12.52;89.08;96288.09;5026545;28;20049;-76
2022/07/18 02:20:00;;;;;;;5.38;3.80;;;;;;;12.51;88.88;96275.94;5006926;28;20041;-75
2022/07/18 02:22:25;;;;;;;5.18;4.00;;;;;;;12.49;88.77;96285.97;5009473;28;20061;-77
2022/07/18 02:24:52;;;;;;;5.90;3.80;;;;;;;12.40;90.05;96284.91;5011020;28;20046;-76
2022/07/18 02:27:18;;;;;;;5.88;4.03;;;;;;;12.34;90.45;96281.47;5010256;28;20034;-75
2022/07/18 02:29:44;;;;;;;7.95;3.53;;;;;;;12.34;90.65;96280.66;5010685;28;20049;-76
2022/07/18 02:32:09;;;;;;;6.13;3.80;;;;;;;12.28;91.23;96283.31;5015222;28;20038;-75
2022/07/18 02:34:35;;;;;;;5.85;4.05;;;;;;;12.25;91.39;96283.81;5027135;28;20735;-76
2022/07/18 02:37:01;;;;;;;6.05;4.22;;;;;;;12.34;90.92;96285.94;5024523;28;20046;-76
2022/07/18 02:39:26;;;;;;;7.25;3.97;;;;;;;12.25;91.40;96277.75;5009656;28;20048;-77
2022/07/18 02:41:52;;;;;;;6.18;3.90;;;;;;;12.12;91.71;96279.03;5012172;28;20048;-77
2022/07/18 02:44:18;;;;;;;6.97;3.70;;;;;;;12.11;92.07;96272.16;5013111;28;20038;-77
2022/07/18 02:46:43;;;;;;;6.93;4.03;;;;;;;12.00;93.01;96270.56;5027007;28;20046;-77
2022/07/18 02:49:09;;;;;;;6.32;3.88;;;;;;;12.00;92.29;96266.06;5010588;28;20108;-77
2022/07/18 02:51:35;;;;;;;5.65;4.15;;;;;;;12.07;92.73;96271.13;5012429;28;20030;-77
2022/07/18 02:54:00;;;;;;;5.70;3.90;;;;;;;12.11;91.73;96277.44;5012493;28;20050;-76
2022/07/18 02:56:26;;;;;;;6.28;4.00;;;;;;;12.20;91.39;96281.16;5008215;28;20065;-76
2022/07/18 02:58:51;;;;;;;5.82;4.10;;;;;;;12.12;91.61;96279.03;5026898;28;20049;-77
2022/07/18 03:01:17;;;;;;;4.82;3.63;;;;;;;12.12;92.01;96284.31;5011737;28;20033;-77
2022/07/18 03:03:42;;;;;;;5.28;3.90;;;;;;;12.07;92.09;96281.66;5027189;28;20038;-77
2022/07/18 03:06:08;;;;;;;6.45;4.10;;;;;;;12.12;91.48;96284.31;5003552;28;20054;-76
2022/07/18 03:08:33;;;;;;;6.72;4.30;;;;;;;12.07;92.77;96281.66;5010257;28;20100;-77
2022/07/18 03:10:59;;;;;;;5.47;3.97;;;;;;;11.99;92.36;96285.59;5010428;28;20034;-77
2022/07/18 03:13:25;;;;;;;6.05;4.35;;;;;;;11.74;94.44;96294.19;5015411;28;20049;-76
2022/07/18 03:15:50;;;;;;;4.85;3.60;;;;;;;11.87;94.82;96293.69;5003647;28;20419;-76
2022/07/18 03:18:17;;;;;;;5.18;3.90;;;;;;;11.73;95.16;96285.47;5003052;28;20098;-76
2022/07/18 03:20:43;;;;;;;5.25;3.90;;;;;;;11.60;96.13;96289.34;5009684;28;20046;-76
2022/07/18 03:23:08;;;;;;;8.02;3.67;;;;;;;11.69;95.62;96291.50;5010233;28;20045;-76
2022/07/18 03:25:34;;;;;;;5.93;3.90;;;;;;;11.76;94.78;96297.34;5009852;28;20112;-77
2022/07/18 03:28:00;;;;;;;5.25;3.88;;;;;;;11.67;96.06;96298.91;5007744;28;20488;-76
2022/07/18 03:30:25;;;;;;;5.82;4.00;;;;;;;11.64;96.32;96299.38;5009529;28;20530;-76
2022/07/18 03:32:51;;;;;;;5.85;4.10;;;;;;;11.58;97.10;96301.22;5010490;28;20466;-75
2022/07/18 03:35:16;;;;;;;5.95;3.90;;;;;;;11.64;96.28;96302.00;5009310;28;20455;-75
2022/07/18 03:37:42;;;;;;;5.38;4.00;;;;;;;11.69;96.51;96302.06;5008950;28;20042;-75
2022/07/18 03:40:09;;;;;;;6.32;3.88;;;;;;;11.77;95.91;96309.47;5009958;28;20072;-75
2022/07/18 03:42:38;;;;;;;6.10;4.03;;;;;;;11.73;95.86;96311.03;5026289;28;20057;-75
2022/07/18 03:45:06;;;;;;;5.60;3.97;;;;;;;11.57;96.79;96305.69;5010787;28;20068;-76
2022/07/18 03:47:31;;;;;;;6.68;4.05;;;;;;;11.50;97.85;96315.66;5009129;28;20045;-75
2022/07/18 03:49:57;;;;;;;5.93;4.30;;;;;;;11.48;98.50;96323.03;5010190;28;20037;-75
2022/07/18 03:52:22;;;;;;;6.00;4.38;;;;;;;11.46;98.95;96330.41;5010717;28;20042;-75
2022/07/18 03:54:48;;;;;;;5.35;4.05;;;;;;;11.49;98.59;96329.09;5011255;28;20543;-75
2022/07/18 03:57:13;;;;;;;7.03;4.20;;;;;;;11.58;97.97;96317.81;5009026;28;20048;-75
2022/07/18 03:59:39;;;;;;;6.88;4.40;;;;;;;11.57;97.67;96321.50;5010641;28;20052;-75
2022/07/18 04:02:04;;;;;;;5.60;4.20;;;;;;;11.66;97.40;96326.28;5010401;28;20516;-76
2022/07/18 04:04:30;;;;;;;5.63;3.80;;;;;;;11.71;97.42;96332.41;5010827;28;20524;-75
2022/07/18 04:06:59;;;;;;;6.20;4.25;;;;;;;11.70;97.93;96324.75;5008977;28;20042;-75
2022/07/18 04:09:25;;;;;;;6.43;4.13;;;;;;;11.75;97.82;96327.38;5025008;28;20109;-75
2022/07/18 04:11:50;;;;;;;6.05;4.28;;;;;;;11.60;98.39;96321.00;5010031;28;20072;-75
2022/07/18 04:14:16;;;;;;;5.88;4.18;;;;;;;11.61;98.77;96327.84;5010300;28;20041;-76
2022/07/18 04:16:41;;;;;;;6.82;4.40;;;;;;;11.71;98.54;96326.31;5008334;28;20065;-75
2022/07/18 04:19:07;;;;;;;7.78;4.53;;;;;;;11.64;98.96;96331.00;5010240;28;20487;-76
2022/07/18 04:21:33;;;;;;;5.68;4.20;;;;;;;11.83;98.09;96326.91;5009872;28;20065;-76
2022/07/18 04:23:58;;;;;;;6.03;4.38;;;;;;;11.85;97.89;96332.75;5010409;28;20569;-76
2022/07/18 04:26:24;;;;;;;8.05;4.22;;;;;;;11.93;97.40;96328.81;5004737;28;20074;-76
2022/07/18 04:28:49;;;;;;;5.38;4.20;;;;;;;11.93;98.10;96324.34;5006895;28;20085;-76
2022/07/18 04:31:15;;;;;;;6.00;4.43;;;;;;;11.94;98.56;96336.47;5010126;28;20096;-76
2022/07/18 04:33:40;;;;;;;5.82;4.15;;;;;;;12.11;98.42;96330.19;5010224;28;20117;-76
2022/07/18 04:36:06;;;;;;;5.95;4.00;;;;;;;12.19;97.83;96329.72;5002228;28;20038;-76
2022/07/18 04:38:34;;;;;;;7.45;4.28;;;;;;;12.22;98.19;96331.81;5024319;28;20041;-76
2022/07/18 04:40:59;;;;;;;6.22;4.75;;;;;;;12.28;98.61;96330.81;5009001;28;20088;-76
2022/07/18 04:43:25;;;;;;;6.45;4.40;;;;;;;12.34;97.88;96317.63;5025327;28;20041;-76
2022/07/18 04:45:50;;;;;;;7.47;4.10;;;;;;;12.43;97.90;96324.00;5001643;28;20050;-76
2022/07/18 04:48:16;;;;;;;7.53;4.63;;;;;;;12.38;98.40;96323.97;5009212;28;20046;-76
2022/07/18 04:50:41;;;;;;;7.13;4.68;;;;;;;12.43;98.77;96322.13;5009436;28;20049;-75
2022/07/18 04:53:07;;;;;;;6.32;4.25;;;;;;;12.64;97.41;96317.69;5009916;28;20048;-75
2022/07/18 04:55:32;;;;;;;7.45;4.35;;;;;;;12.67;97.91;96320.84;5006997;28;20117;-75
2022/07/18 04:57:58;;;;;;;7.80;4.38;;;;;;;12.70;97.66;96320.31;5009472;28;20038;-76
2022/07/18 05:00:25;;;;;;;6.15;4.55;;;;;;;12.83;97.71;96317.97;5007951;28;20042;-76
2022/07/18 05:02:53;;;;;;;5.97;4.25;;;;;;;12.99;97.90;96318.75;5008655;28;20053;-75
2022/07/18 05:05:19;;;;;;;7.07;4.50;;;;;;;13.17;96.51;96313.97;5002159;28;20053;-76
2022/07/18 05:07:46;;;;;;;9.35;4.80;;;;;;;13.20;96.34;96318.72;5009782;28;20037;-76
2022/07/18 05:10:14;;;;;;;7.43;4.60;;;;;;;13.28;96.57;96320.84;5007875;28;20266;-76
2022/07/18 05:12:42;;;;;;;6.65;4.55;;;;;;;13.42;95.18;96315.03;5009833;28;20034;-75
2022/07/18 05:15:10;;;;;;;6.65;4.60;;;;;;;13.49;95.76;96321.66;5009324;28;20423;-76
2022/07/18 05:17:36;;;;;;;7.95;4.75;;;;;;;13.56;96.55;96326.66;5003110;28;20045;-76
2022/07/18 05:20:04;;;;;;;6.35;4.80;;;;;;;13.67;94.69;96322.91;5007700;28;20049;-76
2022/07/18 05:22:29;;;;;;;6.68;4.60;;;;;;;13.82;92.91;96313.34;5009814;28;20038;-77
2022/07/18 05:24:55;;;;;;;6.68;4.80;;;;;;;13.92;92.95;96313.34;5024667;28;20041;-77
2022/07/18 05:27:20;;;;;;;7.50;5.30;;;;;;;13.86;94.70;96314.38;5003875;28;20042;-77
2022/07/18 05:29:46;;;;;;;9.43;5.40;;;;;;;13.89;94.48;96313.84;5008706;28;20038;-76
2022/07/18 05:32:12;;;;;;;7.40;5.47;;;;;;;13.98;93.46;96309.59;4989930;28;20054;-76
2022/07/18 05:34:37;;;;;;;6.70;5.00;;;;;;;14.13;93.07;96318.53;5003595;28;20088;-76
2022/07/18 05:37:03;;;;;;;9.75;5.50;;;;;;;14.27;92.23;96308.94;5006975;28;20049;-77
2022/07/18 05:39:28;;;;;;;10.18;5.70;;;;;;;14.35;92.10;96315.50;5018675;28;20606;-77
2022/07/18 05:41:54;;;;;;;8.48;5.85;;;;;;;14.32;91.67;96311.56;5008880;28;20046;-76
2022/07/18 05:44:20;;;;;;;9.55;6.55;;;;;;;14.42;92.24;96309.91;5009068;28;20236;-75
2022/07/18 05:46:46;;;;;;;8.15;6.18;;;;;;;14.46;92.44;96310.94;5008412;28;20046;-76
2022/07/18 05:49:13;;;;;;;8.55;6.05;;;;;;;14.57;92.36;96317.75;5009003;28;20038;-76
2022/07/18 05:51:38;;;;;;;9.35;6.32;;;;;;;14.81;90.20;96307.31;5008815;28;20041;-80
2022/07/18 05:54:04;;;;;;;11.65;7.13;;;;;;;14.91;86.86;96311.72;5007603;28;20755;-78
2022/07/18 05:56:29;;;;;;;11.82;6.60;;;;;;;14.96;88.81;96313.56;5009198;28;20211;-78
2022/07/18 05:58:54;;;;;;;12.18;6.90;;;;;;;14.95;89.41;96311.97;5011102;28;20547;-78
2022/07/18 06:01:21;;;;;;;12.38;7.13;;;;;;;15.07;89.27;96309.75;5026267;28;20125;-77
2022/07/18 06:03:47;;;;;;;11.52;7.20;;;;;;;15.06;89.83;96314.25;5011272;28;20049;-76
2022/07/18 06:06:14;;;;;;;12.15;7.45;;;;;;;15.15;89.38;96316.31;5005699;28;20047;-76
2022/07/18 06:08:40;;;;;;;13.80;8.07;;;;;;;15.23;88.70;96302.44;5007916;28;20038;-76
2022/07/18 06:11:07;;;;;;;13.50;7.57;;;;;;;15.27;88.74;96308.78;5008302;28;20109;-76
2022/07/18 06:13:34;;;;;;;14.57;8.00;;;;;;;15.57;86.95;96309.53;5009538;28;20038;-76
2022/07/18 06:16:00;;;;;;;17.65;7.63;;;;;;;15.91;84.91;96300.72;5008410;28;20045;-77
2022/07/18 06:18:25;;;;;;;14.70;8.07;;;;;;;15.86;85.71;96298.09;5002848;28;20042;-78
2022/07/18 06:20:51;;;;;;;12.07;7.75;;;;;;;15.82;86.81;96307.72;5008760;28;20077;-77
2022/07/18 06:23:16;;;;;;;13.23;8.18;;;;;;;15.78;88.63;96307.44;5003485;28;20072;-76
2022/07/18 06:25:42;;;;;;;12.65;7.57;;;;;;;16.07;80.95;96310.03;5015763;28;20526;-76
2022/07/18 06:28:07;;;;;;;15.68;7.97;;;;;;;16.03;83.86;96303.75;5005252;28;20104;-78
2022/07/18 06:30:33;;;;;;;12.15;7.55;;;;;;;16.48;80.75;96302.63;5008785;28;20639;-76
2022/07/18 06:32:58;;;;;;;13.45;8.40;;;;;;;16.37;83.09;96301.97;5005710;28;20054;-76
2022/07/18 06:35:23;;;;;;;17.38;7.82;;;;;;;16.53;79.79;96305.22;5011803;28;20042;-77
2022/07/18 06:37:49;;;;;;;18.85;7.72;;;;;;;16.71;80.12;96303.63;5022273;28;20069;-77
2022/07/18 06:40:14;;;;;;;17.15;7.88;;;;;;;16.64;81.98;96301.34;5010059;28;20512;-77
2022/07/18 06:42:40;;;;;;;12.38;7.32;;;;;;;16.77;79.82;96300.59;5004742;28;20046;-78
2022/07/18 06:45:07;;;;;;;16.92;7.35;;;;;;;16.89;77.80;96294.06;5019786;28;20046;-77
2022/07/18 06:47:32;;;;;;;13.13;7.68;;;;;;;16.94;78.54;96294.78;5008461;28;20048;-77
2022/07/18 06:49:58;;;;;;;12.80;7.32;;;;;;;16.94;77.96;96289.47;5010175;28;20041;-77
2022/07/18 06:52:23;;;;;;;12.02;6.90;;;;;;;17.03;79.11;96292.25;5010918;28;20073;-77
2022/07/18 06:54:49;;;;;;;12.40;6.75;;;;;;;17.24;72.24;96286.56;5011647;28;20053;-76
2022/07/18 06:57:14;;;;;;;15.77;6.95;;;;;;;17.66;70.19;96304.16;5021520;28;20037;-76
2022/07/18 06:59:40;;;;;;;11.10;6.43;;;;;;;17.77;69.90;96303.97;5002774;28;20125;-75
2022/07/18 07:02:05;;;;;;;10.90;6.25;;;;;;;18.03;70.35;96301.66;5011113;28;20050;-78
2022/07/18 07:04:31;;;;;;;9.32;6.28;;;;;;;18.09;67.45;96300.44;5008306;28;20096;-76
2022/07/18 07:06:57;;;;;;;8.27;6.05;;;;;;;18.09;67.57;96300.44;5010522;28;20045;-75
2022/07/18 07:09:22;;;;;;;13.00;7.35;;;;;;;18.08;66.44;96304.19;5008510;28;20408;-76
2022/07/18 07:11:48;;;;;;;11.10;6.10;;;;;;;18.00;67.46;96313.66;5006011;28;20522;-81
2022/07/18 07:14:13;;;;;;;10.60;6.40;;;;;;;17.97;67.82;96313.47;5011083;28;20087;-77
2022/07/18 07:16:39;;;;;;;10.75;5.78;;;;;;;18.26;63.23;96302.50;5011944;28;20045;-77
2022/07/18 07:19:04;;;;;;;6.95;4.88;;;;;;;18.27;63.58;96312.03;5009747;28;20492;-77
2022/07/18 07:21:30;;;;;;;8.45;5.18;;;;;;;18.24;64.41;96311.88;5012074;28;20041;-77
2022/07/18 07:23:55;;;;;;;8.60;5.72;;;;;;;19.04;59.24;96314.91;5011779;28;20050;-77
2022/07/18 07:26:20;;;;;;;8.13;5.18;;;;;;;18.96;59.56;96321.72;5010813;28;20073;-76
2022/07/18 07:28:46;;;;;;;8.35;4.85;;;;;;;19.07;58.30;96316.97;5007141;28;20038;-77
2022/07/18 07:31:11;;;;;;;7.95;5.50;;;;;;;18.97;60.57;96311.88;5010296;28;20045;-78
2022/07/18 07:33:37;;;;;;;9.90;5.53;;;;;;;19.13;57.29;96318.41;5027381;28;20030;-77
2022/07/18 07:36:04;;;;;;;10.95;5.47;;;;;;;19.26;58.67;96323.97;5012648;28;20050;-77
2022/07/18 07:38:30;;;;;;;11.23;5.18;;;;;;;19.32;57.02;96325.41;5010212;28;20048;-77
2022/07/18 07:40:56;;;;;;;11.80;5.07;;;;;;;20.04;51.96;96316.34;5025980;28;20591;-79
2022/07/18 07:43:24;;;;;;;9.20;5.10;;;;;;;19.73;57.06;96321.69;5011580;28;20528;-77
2022/07/18 07:45:52;;;;;;;9.75;5.13;;;;;;;19.84;53.78;96317.69;5012814;28;20034;-77
2022/07/18 07:48:18;;;;;;;12.20;5.10;;;;;;;19.78;55.07;96318.09;5026358;28;20042;-78
2022/07/18 07:50:43;;;;;;;8.32;4.90;;;;;;;20.01;53.71;96321.50;5010219;28;20034;-78
2022/07/18 07:53:09;;;;;;;8.77;5.80;;;;;;;20.18;51.97;96320.75;5011279;28;20050;-77
2022/07/18 07:55:35;;;;;;;10.15;5.50;;;;;;;20.21;53.17;96320.94;5012162;28;20131;-77
2022/07/18 07:58:01;;;;;;;10.75;5.20;;;;;;;20.46;49.39;96310.59;5011104;28;20065;-77
2022/07/18 08:00:27;;;;;;;12.20;4.82;;;;;;;20.44;50.32;96307.44;5009689;28;20500;-79
2022/07/18 08:02:55;;;;;;;8.77;4.82;;;;;;;20.77;47.42;96307.00;5009834;28;20493;-76
2022/07/18 08:05:22;;;;;;;9.10;5.22;;;;;;;20.70;48.54;96304.00;5011969;28;20222;-78
2022/07/18 08:07:47;;;;;;;8.90;5.32;;;;;;;20.36;48.87;96300.22;5010316;28;20045;-77
2022/07/18 08:10:13;;;;;;;10.93;5.30;;;;;;;20.78;45.30;96295.19;5012135;28;20042;-77
2022/07/18 08:12:39;;;;;;;7.50;4.53;;;;;;;21.31;44.98;96301.25;5011652;28;20038;-77
2022/07/18 08:15:05;;;;;;;9.18;4.75;;;;;;;21.33;41.09;96298.25;5009597;28;20052;-79
2022/07/18 08:17:31;;;;;;;7.50;4.80;;;;;;;21.00;47.08;96293.44;5010423;28;20074;-77
2022/07/18 08:19:57;;;;;;;8.35;4.57;;;;;;;21.37;42.49;96294.63;5005472;28;20504;-77
2022/07/18 08:22:22;;;;;;;8.13;5.13;;;;;;;21.74;42.06;96295.00;5010634;28;20038;-76
2022/07/18 08:24:47;;;;;;;12.77;5.03;;;;;;;21.69;44.15;96289.03;5007772;28;20034;-76
2022/07/18 08:27:14;;;;;;;9.20;5.30;;;;;;;21.45;44.46;96295.72;5004375;28;20038;-76
2022/07/18 08:29:39;;;;;;;28.65;6.10;;;;;;;21.92;41.41;96293.03;5011774;28;20038;-76
2022/07/18 08:32:04;;;;;;;6.60;4.50;;;;;;;22.41;39.34;96289.09;5004309;28;20128;-76
2022/07/18 08:34:31;;;;;;;37.67;6.30;;;;;;;22.04;44.04;96295.00;5004430;28;20044;-76
2022/07/18 08:36:57;;;;;;;10.50;4.90;;;;;;;22.27;42.13;96292.81;5010188;28;20050;-77
2022/07/18 08:39:22;;;;;;;13.02;5.47;;;;;;;21.96;41.01;96283.19;5024533;28;20048;-77
2022/07/18 08:41:50;;;;;;;10.40;4.60;;;;;;;22.03;40.67;96293.41;5011240;28;20048;-77
2022/07/18 08:44:16;;;;;;;6.95;3.88;;;;;;;22.24;40.80;96282.72;5013339;28;20050;-77
2022/07/18 08:46:49;;;;;;;7.32;3.60;;;;;;;22.75;35.14;96288.03;5007289;28;20423;-77
2022/07/18 08:49:15;;;;;;;7.97;4.13;;;;;;;22.78;37.21;96289.28;5013115;28;20041;-77
2022/07/18 08:51:42;;;;;;;8.13;4.18;;;;;;;22.92;39.09;96280.97;5013034;28;20053;-77
2022/07/18 08:54:09;;;;;;;6.25;3.63;;;;;;;22.75;38.75;96276.53;5013594;28;20495;-77
2022/07/18 08:56:34;;;;;;;8.50;4.63;;;;;;;23.06;38.47;96283.34;5015956;28;20045;-77
2022/07/18 08:59:02;;;;;;;6.18;4.25;;;;;;;23.41;37.39;96277.66;5010355;28;20066;-77
2022/07/18 09:01:28;;;;;;;7.47;4.28;;;;;;;23.50;37.58;96278.31;5007989;28;20033;-77
2022/07/18 09:06:49;;;;;;;5.47;3.70;;;;;;;23.43;37.16;96278.09;5035716;28;20034;-77
2022/07/18 09:09:17;;;;;;;5.15;3.78;;;;;;;23.63;35.96;96271.84;5034675;28;20046;-78
2022/07/18 09:12:01;;;;;;;7.70;4.00;;;;;;;23.43;37.47;96280.78;5034884;28;20044;-77
2022/07/18 09:14:30;;;;;;;10.70;4.60;;;;;;;23.29;39.00;96276.50;5035130;28;20042;-76
2022/07/18 09:17:00;;;;;;;5.78;3.53;;;;;;;23.81;32.52;96269.72;5035689;28;20030;-78
2022/07/18 09:19:26;;;;;;;5.18;3.58;;;;;;;23.83;34.47;96272.06;5038507;28;20061;-78
2022/07/18 09:21:51;;;;;;;5.15;3.50;;;;;;;24.25;35.15;96273.72;5036869;28;20034;-78
2022/07/18 09:24:23;;;;;;;8.07;3.90;;;;;;;24.60;33.17;96271.31;5035951;28;20030;-79
2022/07/18 09:26:50;;;;;;;13.70;4.18;;;;;;;24.38;33.61;96277.97;5036301;28;20040;-78
2022/07/18 09:29:17;;;;;;;8.07;4.10;;;;;;;24.77;32.05;96264.06;5036443;28;20050;-77
2022/07/18 09:31:50;;;;;;;17.23;4.03;;;;;;;25.03;32.32;96267.09;5036254;28;20025;-77
2022/07/18 09:34:34;;;;;;;5.60;3.60;;;;;;;25.25;30.90;96262.25;5037357;28;20055;-77
2022/07/18 09:37:00;;;;;;;5.15;3.10;;;;;;;25.26;30.08;96258.44;5042345;28;20032;-76
2022/07/18 09:39:25;;;;;;;5.75;3.17;;;;;;;25.42;28.95;96261.94;5049108;28;20070;-76
2022/07/18 09:41:51;;;;;;;9.82;3.10;;;;;;;25.41;29.34;96259.59;5034279;28;20046;-76
2022/07/18 09:44:18;;;;;;;5.65;2.80;;;;;;;25.46;28.78;96261.25;5035939;28;20038;-76
2022/07/18 09:47:04;;;;;;;7.45;2.95;;;;;;;25.13;29.24;96259.63;5040294;28;20032;-76
2022/07/18 09:49:34;;;;;;;6.90;2.67;;;;;;;25.10;30.41;96265.72;5047534;28;20085;-76
2022/07/18 09:52:06;;;;;;;5.60;2.90;;;;;;;25.07;30.06;96273.34;5028694;28;20199;-78
2022/07/18 09:54:40;;;;;;;3.72;2.83;;;;;;;25.20;28.95;96265.22;5023989;28;20042;-77
2022/07/18 09:57:06;;;;;;;4.57;3.00;;;;;;;25.15;28.74;96262.78;5024669;28;20050;-77
2022/07/18 09:59:32;;;;;;;5.95;3.25;;;;;;;25.17;28.73;96265.88;5009134;28;20048;-77
2022/07/18 10:01:58;;;;;;;7.15;3.00;;;;;;;25.43;28.82;96270.84;5006556;28;20049;-77
2022/07/18 10:04:24;;;;;;;5.75;3.05;;;;;;;25.58;28.97;96274.66;5011168;28;20138;-78
2022/07/18 10:06:50;;;;;;;14.27;3.35;;;;;;;25.46;28.41;96266.63;5016623;28;20140;-77
2022/07/18 10:09:15;;;;;;;4.15;2.67;;;;;;;25.42;28.27;96267.34;5016702;28;20419;-77
2022/07/18 10:11:42;;;;;;;3.33;2.42;;;;;;;25.60;28.09;96261.59;5012783;28;20040;-75
2022/07/18 10:14:08;;;;;;;3.90;2.67;;;;;;;25.64;30.04;96253.59;5015426;28;20034;-77
2022/07/18 10:16:34;;;;;;;7.40;2.70;;;;;;;25.67;30.32;96261.75;5015217;28;20030;-77
2022/07/18 10:19:00;;;;;;;6.90;3.05;;;;;;;25.96;27.69;96248.97;5013471;28;20120;-77
2022/07/18 10:21:29;;;;;;;7.88;2.88;;;;;;;26.01;27.88;96248.69;5009716;28;20506;-79
2022/07/18 10:23:55;;;;;;;3.90;2.67;;;;;;;25.95;27.98;96242.00;5013948;28;20038;-77
2022/07/18 10:26:24;;;;;;;3.45;2.53;;;;;;;26.03;27.83;96253.75;5013114;28;20041;-77
2022/07/18 10:28:55;;;;;;;3.50;2.60;;;;;;;26.03;27.29;96251.03;5014383;28;20042;-77
2022/07/18 10:31:25;;;;;;;3.83;2.67;;;;;;;26.25;27.99;96252.31;5012096;28;20045;-76
2022/07/18 10:33:52;;;;;;;6.53;2.92;;;;;;;26.29;27.87;96253.13;5013492;28;20087;-78
2022/07/18 10:36:22;;;;;;;4.85;2.90;;;;;;;26.58;27.36;96248.34;5025095;28;20038;-78
2022/07/18 10:39:19;;;;;;;6.32;2.65;;;;;;;27.06;25.46;96251.56;5013655;28;20045;-76
2022/07/18 10:41:48;;;;;;;3.67;2.55;;;;;;;27.00;26.25;96250.31;5028717;28;20038;-77
2022/07/18 10:44:23;;;;;;;6.03;2.78;;;;;;;27.33;27.35;96248.97;5017210;28;20073;-77
2022/07/18 10:47:11;;;;;;;6.47;3.08;;;;;;;27.09;26.47;96245.44;5010748;28;20525;-78
2022/07/18 10:49:49;;;;;;;4.25;2.92;;;;;;;27.39;28.04;96249.47;5004823;28;20056;-78
2022/07/18 10:52:26;;;;;;;5.57;3.00;;;;;;;27.75;26.62;96252.75;5015903;28;20045;-78
2022/07/18 10:55:05;;;;;;;4.03;2.50;;;;;;;28.27;25.44;96250.41;5011060;28;20080;-78
2022/07/18 10:57:34;;;;;;;5.15;2.70;;;;;;;28.27;24.87;96245.00;5011657;28;20042;-78
2022/07/18 11:00:09;;;;;;;3.90;2.80;;;;;;;28.59;24.51;96239.19;5005699;28;20611;-77
2022/07/18 11:02:37;;;;;;;3.67;2.50;;;;;;;28.81;24.83;96230.19;5012614;28;20420;-77
2022/07/18 11:05:23;;;;;;;8.48;2.70;;;;;;;29.37;24.80;96233.06;5013100;28;20066;-78
2022/07/18 11:08:01;;;;;;;4.35;2.85;;;;;;;29.23;23.60;96227.53;5011957;28;20045;-78
2022/07/18 11:10:46;;;;;;;6.18;2.80;;;;;;;29.67;25.20;96229.44;5012240;28;20045;-79
2022/07/18 11:13:24;;;;;;;4.72;3.03;;;;;;;29.98;23.99;96232.75;5013237;28;20060;-78
2022/07/18 11:15:58;;;;;;;7.60;2.90;;;;;;;30.81;22.28;96227.69;5013101;28;20038;-79
2022/07/18 11:18:24;;;;;;;4.07;2.65;;;;;;;30.87;22.81;96226.91;5014777;28;20060;-78
2022/07/18 11:20:51;;;;;;;5.95;2.83;;;;;;;29.89;22.61;96225.69;5012774;28;20045;-78
2022/07/18 11:23:22;;;;;;;3.45;2.55;;;;;;;30.39;23.09;96219.00;5016370;28;20038;-78
2022/07/18 11:25:51;;;;;;;6.22;2.60;;;;;;;31.07;20.45;96223.88;5015153;28;20038;-78
2022/07/18 11:28:18;;;;;;;4.80;2.95;;;;;;;31.37;21.57;96209.16;5015239;28;20393;-79
2022/07/18 11:30:44;;;;;;;5.22;2.78;;;;;;;31.27;21.41;96211.47;5030114;28;20033;-78
2022/07/18 11:33:25;;;;;;;5.55;2.80;;;;;;;31.79;21.19;96210.28;5015708;28;20044;-78
2022/07/18 11:35:51;;;;;;;4.70;2.70;;;;;;;32.00;20.98;96211.44;5013362;28;20042;-78